EZY445 EGCC-EGKK
Flight info
| Callsign | EZY445 |
|---|---|
| Flight time | 0h 49m |
| Altitude | 19000 |
| Route | LISTO2Y LISTO L612 HON N859 KIDLI KIDLI1G |
| Aircraft | A20N/M-SDE2E3FGHIRWXY/LB1 |
Departure
| Time | 2026-05-04 19:14 |
|---|---|
| Airport | Manchester Airport (EGCC) |
Arrival
| Time | 2026-05-04 20:03 |
|---|---|
| Airport | London Gatwick Airport (EGKK) |
| Time | Latitude | Longitude | Altitude | Speed | Heading |
|---|---|---|---|---|---|
| 2026-05-04 18:49 | 53.36065 | -2.26841 | 233 ft | 0 kts | 314° |
| 2026-05-04 19:02 | 53.36063 | -2.26839 | 236 ft | 1 kts | 313° |
| 2026-05-04 19:02 | 53.36057 | -2.26828 | 234 ft | 2 kts | 307° |
| 2026-05-04 19:02 | 53.36051 | -2.26813 | 237 ft | 2 kts | 297° |
| 2026-05-04 19:02 | 53.36047 | -2.26797 | 233 ft | 2 kts | 288° |
| 2026-05-04 19:03 | 53.36044 | -2.26780 | 236 ft | 2 kts | 279° |
| 2026-05-04 19:03 | 53.36042 | -2.26763 | 236 ft | 2 kts | 270° |
| 2026-05-04 19:03 | 53.36043 | -2.26745 | 236 ft | 2 kts | 253° |
| 2026-05-04 19:03 | 53.36045 | -2.26732 | 237 ft | 0 kts | 239° |
| 2026-05-04 19:05 | 53.36045 | -2.26733 | 237 ft | 0 kts | 236° |
| 2026-05-04 19:05 | 53.36036 | -2.26738 | 235 ft | 5 kts | 206° |
| 2026-05-04 19:05 | 53.36001 | -2.26746 | 233 ft | 0 kts | 171° |
| 2026-05-04 19:07 | 53.35992 | -2.26742 | 233 ft | 5 kts | 166° |
| 2026-05-04 19:07 | 53.35942 | -2.26718 | 234 ft | 1 kts | 163° |
| 2026-05-04 19:08 | 53.35927 | -2.26712 | 237 ft | 0 kts | 167° |
| 2026-05-04 19:09 | 53.35919 | -2.26710 | 234 ft | 5 kts | 169° |
| 2026-05-04 19:09 | 53.35903 | -2.26704 | 238 ft | 0 kts | 169° |
| 2026-05-04 19:09 | 53.35785 | -2.26667 | 246 ft | 32 kts | 172° |
| 2026-05-04 19:10 | 53.35652 | -2.26640 | 234 ft | 0 kts | 174° |
| 2026-05-04 19:10 | 53.35599 | -2.26633 | 233 ft | 15 kts | 183° |
| 2026-05-04 19:10 | 53.35512 | -2.26746 | 234 ft | 18 kts | 231° |
| 2026-05-04 19:10 | 53.35432 | -2.26916 | 233 ft | 19 kts | 232° |
| 2026-05-04 19:11 | 53.35343 | -2.27097 | 233 ft | 21 kts | 230° |
| 2026-05-04 19:11 | 53.35299 | -2.27176 | 234 ft | 14 kts | 217° |
| 2026-05-04 19:11 | 53.35199 | -2.27233 | 234 ft | 16 kts | 195° |
| 2026-05-04 19:11 | 53.35096 | -2.27276 | 233 ft | 11 kts | 193° |
| 2026-05-04 19:12 | 53.35019 | -2.27324 | 235 ft | 12 kts | 226° |
| 2026-05-04 19:12 | 53.34895 | -2.27552 | 232 ft | 10 kts | 230° |
| 2026-05-04 19:12 | 53.34843 | -2.27658 | 230 ft | 14 kts | 230° |
| 2026-05-04 19:13 | 53.34775 | -2.27796 | 229 ft | 16 kts | 231° |
| 2026-05-04 19:13 | 53.34653 | -2.28055 | 231 ft | 60 kts | 231° |
| 2026-05-04 19:13 | 53.34222 | -2.28938 | 231 ft | 132 kts | 231° |
| 2026-05-04 19:13 | 53.33527 | -2.30303 | 502 ft | 166 kts | 231° |
| 2026-05-04 19:14 | 53.32766 | -2.31917 | 1037 ft | 187 kts | 237° |
| 2026-05-04 19:14 | 53.31974 | -2.33806 | 1558 ft | 210 kts | 239° |
| 2026-05-04 19:14 | 53.31509 | -2.36156 | 2139 ft | 217 kts | 272° |
| 2026-05-04 19:14 | 53.31774 | -2.38648 | 2807 ft | 220 kts | 289° |
| 2026-05-04 19:15 | 53.32167 | -2.41100 | 3423 ft | 224 kts | 274° |
| 2026-05-04 19:15 | 53.31861 | -2.43643 | 4073 ft | 229 kts | 243° |
| 2026-05-04 19:15 | 53.30278 | -2.45984 | 4948 ft | 236 kts | 200° |
| 2026-05-04 19:15 | 53.29208 | -2.46311 | 5374 ft | 239 kts | 180° |
| 2026-05-04 19:16 | 53.27545 | -2.45846 | 6038 ft | 251 kts | 161° |
| 2026-05-04 19:16 | 53.25934 | -2.44525 | 6688 ft | 266 kts | 148° |
| 2026-05-04 19:16 | 53.24364 | -2.42803 | 7304 ft | 272 kts | 148° |
| 2026-05-04 19:16 | 53.22734 | -2.41159 | 7935 ft | 275 kts | 150° |
| 2026-05-04 19:17 | 53.21058 | -2.39591 | 8585 ft | 278 kts | 152° |
| 2026-05-04 19:17 | 53.19345 | -2.38065 | 9246 ft | 280 kts | 153° |
| 2026-05-04 19:17 | 53.17610 | -2.36558 | 9907 ft | 283 kts | 154° |
| 2026-05-04 19:17 | 53.15858 | -2.35044 | 10513 ft | 285 kts | 154° |
| 2026-05-04 19:18 | 53.14092 | -2.33517 | 11130 ft | 286 kts | 154° |
| 2026-05-04 19:18 | 53.12319 | -2.31982 | 11753 ft | 289 kts | 153° |
| 2026-05-04 19:18 | 53.10532 | -2.30430 | 12396 ft | 291 kts | 153° |
| 2026-05-04 19:18 | 53.08731 | -2.28865 | 13050 ft | 293 kts | 153° |
| 2026-05-04 19:19 | 53.06915 | -2.27289 | 13711 ft | 296 kts | 154° |
| 2026-05-04 19:19 | 53.05086 | -2.25701 | 14328 ft | 298 kts | 154° |
| 2026-05-04 19:19 | 53.03242 | -2.24104 | 14933 ft | 300 kts | 154° |
| 2026-05-04 19:19 | 53.01385 | -2.22497 | 15557 ft | 302 kts | 154° |
| 2026-05-04 19:20 | 52.99512 | -2.20877 | 16179 ft | 305 kts | 154° |
| 2026-05-04 19:20 | 52.97627 | -2.19243 | 16831 ft | 307 kts | 154° |
| 2026-05-04 19:20 | 52.95725 | -2.17594 | 17490 ft | 310 kts | 154° |
| 2026-05-04 19:20 | 52.93806 | -2.15931 | 18166 ft | 312 kts | 154° |
| 2026-05-04 19:21 | 52.91868 | -2.14255 | 18739 ft | 316 kts | 154° |
| 2026-05-04 19:21 | 52.89907 | -2.12561 | 18968 ft | 318 kts | 154° |
| 2026-05-04 19:21 | 52.87945 | -2.10867 | 19041 ft | 318 kts | 154° |
| 2026-05-04 19:21 | 52.85984 | -2.09175 | 19053 ft | 317 kts | 154° |
| 2026-05-04 19:22 | 52.84029 | -2.07491 | 19056 ft | 317 kts | 154° |
| 2026-05-04 19:22 | 52.82070 | -2.05806 | 19053 ft | 317 kts | 154° |
| 2026-05-04 19:22 | 52.80111 | -2.04121 | 19040 ft | 317 kts | 154° |
| 2026-05-04 19:22 | 52.78143 | -2.02432 | 19051 ft | 325 kts | 154° |
| 2026-05-04 19:23 | 52.76058 | -2.00648 | 19050 ft | 350 kts | 154° |
| 2026-05-04 19:23 | 52.73828 | -1.98741 | 19052 ft | 372 kts | 154° |
| 2026-05-04 19:23 | 52.71523 | -1.96769 | 19048 ft | 380 kts | 154° |
| 2026-05-04 19:23 | 52.69150 | -1.94737 | 19051 ft | 379 kts | 154° |
| 2026-05-04 19:24 | 52.66812 | -1.92736 | 19049 ft | 379 kts | 154° |
| 2026-05-04 19:24 | 52.64472 | -1.90739 | 19050 ft | 379 kts | 154° |
| 2026-05-04 19:24 | 52.62134 | -1.88746 | 19044 ft | 377 kts | 154° |
| 2026-05-04 19:24 | 52.59882 | -1.86828 | 19046 ft | 361 kts | 154° |
| 2026-05-04 19:25 | 52.57702 | -1.84973 | 19045 ft | 344 kts | 154° |
| 2026-05-04 19:25 | 52.55627 | -1.83209 | 19046 ft | 328 kts | 154° |
| 2026-05-04 19:25 | 52.53626 | -1.81512 | 19048 ft | 324 kts | 155° |
| 2026-05-04 19:25 | 52.51601 | -1.79802 | 19048 ft | 329 kts | 155° |
| 2026-05-04 19:26 | 52.49570 | -1.78087 | 19049 ft | 327 kts | 155° |
| 2026-05-04 19:26 | 52.47546 | -1.76377 | 19046 ft | 327 kts | 155° |
| 2026-05-04 19:26 | 52.45494 | -1.74645 | 19047 ft | 327 kts | 155° |
| 2026-05-04 19:26 | 52.43498 | -1.72962 | 19049 ft | 327 kts | 155° |
| 2026-05-04 19:27 | 52.41472 | -1.71254 | 19046 ft | 327 kts | 155° |
| 2026-05-04 19:27 | 52.39453 | -1.69555 | 19045 ft | 327 kts | 155° |
| 2026-05-04 19:27 | 52.37431 | -1.67854 | 19049 ft | 327 kts | 155° |
| 2026-05-04 19:27 | 52.35382 | -1.66256 | 19045 ft | 325 kts | 161° |
| 2026-05-04 19:28 | 52.33241 | -1.65087 | 19046 ft | 324 kts | 165° |
| 2026-05-04 19:28 | 52.31093 | -1.63980 | 19047 ft | 324 kts | 164° |
| 2026-05-04 19:28 | 52.28946 | -1.62864 | 19044 ft | 324 kts | 164° |
| 2026-05-04 19:28 | 52.26796 | -1.61743 | 19045 ft | 324 kts | 164° |
| 2026-05-04 19:29 | 52.24646 | -1.60621 | 19047 ft | 324 kts | 164° |
| 2026-05-04 19:29 | 52.22503 | -1.59503 | 19048 ft | 324 kts | 164° |
| 2026-05-04 19:29 | 52.20354 | -1.58385 | 19047 ft | 324 kts | 164° |
| 2026-05-04 19:29 | 52.18213 | -1.57272 | 19046 ft | 323 kts | 164° |
| 2026-05-04 19:30 | 52.16068 | -1.56158 | 19045 ft | 323 kts | 164° |
| 2026-05-04 19:30 | 52.13927 | -1.55047 | 19047 ft | 323 kts | 164° |
| 2026-05-04 19:30 | 52.11788 | -1.53939 | 19044 ft | 323 kts | 164° |
| 2026-05-04 19:30 | 52.09650 | -1.52832 | 19046 ft | 323 kts | 164° |
| 2026-05-04 19:31 | 52.07509 | -1.51726 | 19044 ft | 323 kts | 164° |
| 2026-05-04 19:31 | 52.05369 | -1.50621 | 19044 ft | 323 kts | 164° |
| 2026-05-04 19:31 | 52.03229 | -1.49517 | 19042 ft | 323 kts | 164° |
| 2026-05-04 19:31 | 52.01086 | -1.48412 | 19042 ft | 323 kts | 164° |
| 2026-05-04 19:32 | 51.98943 | -1.47308 | 18988 ft | 324 kts | 164° |
| 2026-05-04 19:32 | 51.96787 | -1.46200 | 18660 ft | 326 kts | 164° |
| 2026-05-04 19:32 | 51.94629 | -1.45091 | 18248 ft | 325 kts | 163° |
| 2026-05-04 19:32 | 51.92482 | -1.43989 | 17794 ft | 323 kts | 163° |
| 2026-05-04 19:33 | 51.90341 | -1.42891 | 17339 ft | 321 kts | 163° |
| 2026-05-04 19:33 | 51.88216 | -1.41801 | 16892 ft | 320 kts | 163° |
| 2026-05-04 19:33 | 51.86102 | -1.40718 | 16453 ft | 318 kts | 163° |
| 2026-05-04 19:33 | 51.83995 | -1.39640 | 16017 ft | 317 kts | 163° |
| 2026-05-04 19:34 | 51.81895 | -1.38567 | 15593 ft | 315 kts | 163° |
| 2026-05-04 19:34 | 51.79806 | -1.37502 | 15213 ft | 313 kts | 163° |
| 2026-05-04 19:34 | 51.77776 | -1.36400 | 15076 ft | 305 kts | 159° |
| 2026-05-04 19:34 | 51.75859 | -1.34842 | 14984 ft | 313 kts | 149° |
| 2026-05-04 19:35 | 51.74021 | -1.32920 | 14665 ft | 314 kts | 148° |
| 2026-05-04 19:35 | 51.72198 | -1.31000 | 14328 ft | 311 kts | 148° |
| 2026-05-04 19:35 | 51.70398 | -1.29114 | 14075 ft | 306 kts | 148° |
| 2026-05-04 19:35 | 51.68607 | -1.27244 | 13854 ft | 308 kts | 148° |
| 2026-05-04 19:36 | 51.66830 | -1.25393 | 13616 ft | 308 kts | 147° |
| 2026-05-04 19:36 | 51.65016 | -1.23505 | 13369 ft | 305 kts | 148° |
| 2026-05-04 19:36 | 51.63259 | -1.21679 | 13134 ft | 304 kts | 148° |
| 2026-05-04 19:36 | 51.61486 | -1.19838 | 12896 ft | 303 kts | 148° |
| 2026-05-04 19:37 | 51.59720 | -1.18006 | 12663 ft | 302 kts | 148° |
| 2026-05-04 19:37 | 51.57959 | -1.16182 | 12426 ft | 301 kts | 148° |
| 2026-05-04 19:37 | 51.56203 | -1.14365 | 12198 ft | 300 kts | 148° |
| 2026-05-04 19:37 | 51.54451 | -1.12554 | 11966 ft | 299 kts | 148° |
| 2026-05-04 19:38 | 51.52704 | -1.10751 | 11742 ft | 298 kts | 148° |
| 2026-05-04 19:38 | 51.50964 | -1.08955 | 11504 ft | 297 kts | 148° |
| 2026-05-04 19:38 | 51.49233 | -1.07170 | 11291 ft | 295 kts | 148° |
| 2026-05-04 19:38 | 51.47509 | -1.05393 | 11065 ft | 294 kts | 148° |
| 2026-05-04 19:39 | 51.45791 | -1.03625 | 10836 ft | 293 kts | 148° |
| 2026-05-04 19:39 | 51.44081 | -1.01866 | 10623 ft | 292 kts | 148° |
| 2026-05-04 19:39 | 51.42378 | -1.00115 | 10403 ft | 291 kts | 148° |
| 2026-05-04 19:39 | 51.40676 | -0.98368 | 10183 ft | 289 kts | 148° |
| 2026-05-04 19:40 | 51.38989 | -0.96637 | 9968 ft | 287 kts | 148° |
| 2026-05-04 19:40 | 51.37303 | -0.94911 | 9734 ft | 288 kts | 148° |
| 2026-05-04 19:40 | 51.35624 | -0.93193 | 9494 ft | 286 kts | 148° |
| 2026-05-04 19:40 | 51.33955 | -0.91485 | 9254 ft | 284 kts | 148° |
| 2026-05-04 19:41 | 51.32290 | -0.89782 | 9019 ft | 284 kts | 148° |
| 2026-05-04 19:41 | 51.30624 | -0.88082 | 8787 ft | 283 kts | 148° |
| 2026-05-04 19:41 | 51.28967 | -0.86392 | 8556 ft | 281 kts | 148° |
| 2026-05-04 19:41 | 51.27318 | -0.84713 | 8319 ft | 281 kts | 148° |
| 2026-05-04 19:42 | 51.25675 | -0.83040 | 8106 ft | 280 kts | 148° |
| 2026-05-04 19:42 | 51.24036 | -0.81372 | 7863 ft | 279 kts | 148° |
| 2026-05-04 19:42 | 51.22399 | -0.79709 | 7623 ft | 278 kts | 148° |
| 2026-05-04 19:42 | 51.20768 | -0.78053 | 7408 ft | 277 kts | 148° |
| 2026-05-04 19:43 | 51.19143 | -0.76403 | 7157 ft | 277 kts | 147° |
| 2026-05-04 19:43 | 51.17527 | -0.74765 | 7035 ft | 275 kts | 147° |
| 2026-05-04 19:43 | 51.15914 | -0.73131 | 7020 ft | 275 kts | 147° |
| 2026-05-04 19:43 | 51.14293 | -0.71491 | 7021 ft | 276 kts | 147° |
| 2026-05-04 19:44 | 51.12675 | -0.69855 | 7021 ft | 276 kts | 147° |
| 2026-05-04 19:44 | 51.11054 | -0.68217 | 7019 ft | 276 kts | 147° |
| 2026-05-04 19:44 | 51.09437 | -0.66584 | 7019 ft | 276 kts | 147° |
| 2026-05-04 19:44 | 51.07816 | -0.64948 | 7016 ft | 275 kts | 147° |
| 2026-05-04 19:45 | 51.06225 | -0.63250 | 7017 ft | 275 kts | 140° |
| 2026-05-04 19:45 | 51.05068 | -0.61273 | 7014 ft | 275 kts | 124° |
| 2026-05-04 19:45 | 51.04154 | -0.58607 | 7018 ft | 275 kts | 115° |
| 2026-05-04 19:45 | 51.03329 | -0.55915 | 7006 ft | 275 kts | 116° |
| 2026-05-04 19:46 | 51.02484 | -0.53191 | 7005 ft | 275 kts | 116° |
| 2026-05-04 19:46 | 51.01633 | -0.50470 | 7001 ft | 275 kts | 116° |
| 2026-05-04 19:46 | 51.00779 | -0.47751 | 7001 ft | 275 kts | 116° |
| 2026-05-04 19:46 | 50.99924 | -0.45033 | 6999 ft | 275 kts | 116° |
| 2026-05-04 19:47 | 50.99070 | -0.42317 | 6998 ft | 275 kts | 116° |
| 2026-05-04 19:47 | 50.98213 | -0.39598 | 6997 ft | 276 kts | 116° |
| 2026-05-04 19:47 | 50.97354 | -0.36875 | 6997 ft | 276 kts | 116° |
| 2026-05-04 19:47 | 50.96495 | -0.34155 | 6946 ft | 275 kts | 116° |
| 2026-05-04 19:48 | 50.95648 | -0.31476 | 6554 ft | 270 kts | 116° |
| 2026-05-04 19:48 | 50.94806 | -0.28815 | 5988 ft | 270 kts | 116° |
| 2026-05-04 19:48 | 50.93968 | -0.26176 | 5518 ft | 264 kts | 116° |
| 2026-05-04 19:48 | 50.93161 | -0.23637 | 5257 ft | 252 kts | 116° |
| 2026-05-04 19:49 | 50.92389 | -0.21210 | 5009 ft | 241 kts | 115° |
| 2026-05-04 19:49 | 50.91654 | -0.18898 | 4750 ft | 230 kts | 115° |
| 2026-05-04 19:49 | 50.90932 | -0.16626 | 4497 ft | 232 kts | 115° |
| 2026-05-04 19:49 | 50.90212 | -0.14358 | 4239 ft | 229 kts | 115° |
| 2026-05-04 19:50 | 50.89498 | -0.12113 | 3984 ft | 228 kts | 115° |
| 2026-05-04 19:50 | 50.88781 | -0.09865 | 3738 ft | 228 kts | 115° |
| 2026-05-04 19:50 | 50.88194 | -0.07582 | 3468 ft | 221 kts | 96° |
| 2026-05-04 19:50 | 50.88386 | -0.05195 | 3234 ft | 222 kts | 64° |
| 2026-05-04 19:51 | 50.89366 | -0.03393 | 3011 ft | 217 kts | 30° |
| 2026-05-04 19:51 | 50.90829 | -0.02807 | 3002 ft | 223 kts | 357° |
| 2026-05-04 19:51 | 50.92328 | -0.03504 | 3000 ft | 229 kts | 336° |
| 2026-05-04 19:51 | 50.93727 | -0.04695 | 2999 ft | 228 kts | 331° |
| 2026-05-04 19:52 | 50.95054 | -0.06084 | 2998 ft | 229 kts | 322° |
| 2026-05-04 19:52 | 50.96128 | -0.07916 | 3005 ft | 232 kts | 306° |
| 2026-05-04 19:52 | 50.96921 | -0.10194 | 3001 ft | 233 kts | 294° |
| 2026-05-04 19:52 | 50.97467 | -0.12616 | 2994 ft | 234 kts | 288° |
| 2026-05-04 19:53 | 50.97889 | -0.15076 | 3002 ft | 234 kts | 285° |
| 2026-05-04 19:53 | 50.98272 | -0.17591 | 2992 ft | 235 kts | 284° |
| 2026-05-04 19:53 | 50.98653 | -0.20140 | 3002 ft | 234 kts | 285° |
| 2026-05-04 19:53 | 50.99044 | -0.22652 | 3002 ft | 235 kts | 285° |
| 2026-05-04 19:54 | 50.99445 | -0.25163 | 3025 ft | 234 kts | 285° |
| 2026-05-04 19:54 | 50.99849 | -0.27664 | 3020 ft | 234 kts | 286° |
| 2026-05-04 19:54 | 51.00254 | -0.30178 | 3023 ft | 235 kts | 286° |
| 2026-05-04 19:54 | 51.00654 | -0.32655 | 3020 ft | 236 kts | 285° |
| 2026-05-04 19:55 | 51.01064 | -0.35208 | 3011 ft | 233 kts | 285° |
| 2026-05-04 19:55 | 51.01443 | -0.37587 | 3018 ft | 209 kts | 285° |
| 2026-05-04 19:55 | 51.01787 | -0.39746 | 3014 ft | 205 kts | 286° |
| 2026-05-04 19:55 | 51.02137 | -0.41932 | 3016 ft | 204 kts | 286° |
| 2026-05-04 19:56 | 51.02486 | -0.44120 | 3018 ft | 205 kts | 286° |
| 2026-05-04 19:56 | 51.02833 | -0.46298 | 3017 ft | 193 kts | 286° |
| 2026-05-04 19:56 | 51.03157 | -0.48335 | 3018 ft | 194 kts | 286° |
| 2026-05-04 19:56 | 51.03490 | -0.50405 | 3017 ft | 193 kts | 289° |
| 2026-05-04 19:57 | 51.04230 | -0.52100 | 3023 ft | 188 kts | 328° |
| 2026-05-04 19:57 | 51.05443 | -0.52649 | 3025 ft | 183 kts | 7° |
| 2026-05-04 19:57 | 51.06629 | -0.52028 | 2899 ft | 179 kts | 28° |
| 2026-05-04 19:57 | 51.07698 | -0.51047 | 2710 ft | 177 kts | 33° |
| 2026-05-04 19:58 | 51.08737 | -0.49994 | 2697 ft | 176 kts | 34° |
| 2026-05-04 19:58 | 51.09717 | -0.48819 | 2693 ft | 178 kts | 44° |
| 2026-05-04 19:58 | 51.10484 | -0.47314 | 2689 ft | 172 kts | 58° |
| 2026-05-04 19:58 | 51.11004 | -0.45610 | 2697 ft | 171 kts | 69° |
| 2026-05-04 19:59 | 51.11261 | -0.44396 | 2660 ft | 173 kts | 73° |
| 2026-05-04 19:59 | 51.11535 | -0.42545 | 2625 ft | 172 kts | 77° |
| 2026-05-04 19:59 | 51.11775 | -0.40706 | 2577 ft | 172 kts | 78° |
| 2026-05-04 19:59 | 51.12009 | -0.38850 | 2498 ft | 171 kts | 77° |
| 2026-05-04 20:00 | 51.12246 | -0.36998 | 2399 ft | 170 kts | 77° |
| 2026-05-04 20:00 | 51.12484 | -0.35143 | 2045 ft | 171 kts | 77° |
| 2026-05-04 20:00 | 51.12820 | -0.32836 | 1719 ft | 153 kts | 75° |
| 2026-05-04 20:00 | 51.12994 | -0.31741 | 1545 ft | 154 kts | 75° |
| 2026-05-04 20:01 | 51.13252 | -0.30079 | 1297 ft | 151 kts | 75° |
| 2026-05-04 20:01 | 51.13491 | -0.28464 | 1163 ft | 154 kts | 76° |
| 2026-05-04 20:01 | 51.13734 | -0.26820 | 981 ft | 152 kts | 76° |
| 2026-05-04 20:01 | 51.13969 | -0.25179 | 830 ft | 148 kts | 76° |
| 2026-05-04 20:02 | 51.14188 | -0.23626 | 579 ft | 141 kts | 76° |
| 2026-05-04 20:02 | 51.14388 | -0.22116 | 403 ft | 139 kts | 76° |
| 2026-05-04 20:02 | 51.14602 | -0.20604 | 221 ft | 139 kts | 76° |
| 2026-05-04 20:02 | 51.14792 | -0.19250 | 211 ft | 91 kts | 77° |
| 2026-05-04 20:03 | 51.14889 | -0.18547 | 211 ft | 43 kts | 78° |
| 2026-05-04 20:03 | 51.14945 | -0.18140 | 215 ft | 28 kts | 77° |
| 2026-05-04 20:03 | 51.15010 | -0.17900 | 219 ft | 21 kts | 59° |
| 2026-05-04 20:03 | 51.15098 | -0.17765 | 206 ft | 12 kts | 13° |
| 2026-05-04 20:04 | 51.15190 | -0.17776 | 205 ft | 14 kts | 353° |
| 2026-05-04 20:04 | 51.15203 | -0.17779 | 209 ft | 0 kts | 352° |
| 2026-05-04 20:05 | 51.15205 | -0.17780 | 209 ft | 2 kts | 353° |
| 2026-05-04 20:05 | 51.15239 | -0.17773 | 209 ft | 7 kts | 22° |
| 2026-05-04 20:05 | 51.15269 | -0.17698 | 208 ft | 9 kts | 75° |
| 2026-05-04 20:06 | 51.15286 | -0.17584 | 204 ft | 12 kts | 78° |
| 2026-05-04 20:06 | 51.15291 | -0.17541 | 210 ft | 0 kts | 79° |
| 2026-05-04 20:07 | 51.15298 | -0.17480 | 204 ft | 9 kts | 81° |
| 2026-05-04 20:07 | 51.15328 | -0.17383 | 217 ft | 11 kts | 29° |
| 2026-05-04 20:07 | 51.15406 | -0.17392 | 204 ft | 12 kts | 349° |
| 2026-05-04 20:07 | 51.15487 | -0.17420 | 204 ft | 11 kts | 347° |
| 2026-05-04 20:08 | 51.15562 | -0.17448 | 211 ft | 10 kts | 347° |
| 2026-05-04 20:08 | 51.15637 | -0.17475 | 212 ft | 12 kts | 347° |
| 2026-05-04 20:08 | 51.15701 | -0.17498 | 215 ft | 10 kts | 347° |
| 2026-05-04 20:08 | 51.15766 | -0.17465 | 204 ft | 11 kts | 63° |
| 2026-05-04 20:09 | 51.15785 | -0.17341 | 207 ft | 13 kts | 77° |
| 2026-05-04 20:09 | 51.15801 | -0.17222 | 206 ft | 11 kts | 77° |
| 2026-05-04 20:09 | 51.15824 | -0.17168 | 212 ft | 4 kts | 6° |
| 2026-05-04 20:09 | 51.15863 | -0.17177 | 214 ft | 7 kts | 338° |
| 2026-05-04 20:10 | 51.15884 | -0.17191 | 207 ft | 0 kts | 336° |